Time,TemperatureF,DewpointF,PressureIn,WindDirection,WindDirectionDegrees,WindSpeedMPH,WindSpeedGustMPH,Humidity,HourlyPrecipIn,Conditions,Clouds,dailyrainin,SoftwareType,DateUTC
2013-02-08 00:00:00,33.4,24.8,30.31,SW,218,1.0,3.0,70,0.00,,,0.00,meteohub,2013-02-08 05:00:00,
2013-02-08 00:01:00,33.4,24.8,30.31,SSW,212,0.0,3.0,70,0.00,,,0.00,meteohub,2013-02-08 05:01:00,
2013-02-08 00:05:00,33.4,24.8,30.31,SSW,205,2.0,3.0,70,0.00,,,0.00,meteohub,2013-02-08 05:05:00,
2013-02-08 00:10:00,33.6,24.8,30.31,SSW,211,0.0,3.0,70,0.00,,,0.00,meteohub,2013-02-08 05:10:00,
2013-02-08 00:16:00,33.6,24.8,30.30,SSW,210,1.0,3.0,70,0.00,,,0.00,meteohub,2013-02-08 05:16:00,
2013-02-08 00:21:00,33.8,25.3,30.30,SSW,198,0.0,2.0,71,0.00,,,0.00,meteohub,2013-02-08 05:21:00,
2013-02-08 00:26:00,34.0,25.5,30.30,SSW,197,0.0,2.0,71,0.00,,,0.00,meteohub,2013-02-08 05:26:00,
2013-02-08 00:31:00,34.0,25.5,30.29,SSW,204,1.0,2.0,71,0.00,,,0.00,meteohub,2013-02-08 05:31:00,
2013-02-08 00:37:00,34.2,26.1,30.29,SSW,212,1.0,2.0,72,0.00,,,0.00,meteohub,2013-02-08 05:37:00,
2013-02-08 00:42:00,34.3,26.2,30.29,SSW,194,1.0,2.0,72,0.00,,,0.00,meteohub,2013-02-08 05:42:00,
2013-02-08 00:47:00,34.3,26.6,30.29,SSW,207,1.0,3.0,73,0.00,,,0.00,meteohub,2013-02-08 05:47:00,
2013-02-08 00:52:00,34.5,26.8,30.28,SSW,212,1.0,3.0,73,0.00,,,0.00,meteohub,2013-02-08 05:52:00,
2013-02-08 00:58:00,34.7,27.3,30.28,SSW,198,0.0,3.0,74,0.00,,,0.00,meteohub,2013-02-08 05:58:00,
2013-02-08 01:03:00,34.9,27.5,30.28,SSW,202,0.0,3.0,74,0.00,,,0.00,meteohub,2013-02-08 06:03:00,
2013-02-08 01:08:00,34.9,27.5,30.28,SSW,203,0.0,3.0,74,0.00,,,0.00,meteohub,2013-02-08 06:08:00,
2013-02-08 01:13:00,35.1,27.7,30.28,SSW,205,3.0,3.0,74,0.00,,,0.00,meteohub,2013-02-08 06:13:00,
2013-02-08 01:18:00,35.1,27.7,30.28,SSW,207,0.0,3.0,74,0.00,,,0.00,meteohub,2013-02-08 06:18:00,
2013-02-08 01:24:00,35.1,27.7,30.27,SSW,195,0.0,3.0,74,0.00,,,0.00,meteohub,2013-02-08 06:24:00,
2013-02-08 01:29:00,35.1,27.9,30.27,SSW,211,1.0,3.0,75,0.00,,,0.00,meteohub,2013-02-08 06:29:00,
2013-02-08 01:34:00,35.2,28.0,30.27,SSW,208,2.0,2.0,75,0.00,,,0.00,meteohub,2013-02-08 06:34:00,
2013-02-08 01:39:00,35.2,28.0,30.27,SSW,193,2.0,6.0,75,0.00,,,0.00,meteohub,2013-02-08 06:39:00,
2013-02-08 01:44:00,35.4,28.2,30.27,SSW,197,0.0,6.0,75,0.00,,,0.00,meteohub,2013-02-08 06:44:00,
2013-02-08 01:50:00,35.6,28.8,30.26,SSW,200,3.0,4.0,76,0.00,,,0.00,meteohub,2013-02-08 06:50:00,
2013-02-08 01:55:00,36.0,29.1,30.26,South,191,2.0,4.0,76,0.00,,,0.00,meteohub,2013-02-08 06:55:00,
2013-02-08 02:00:00,36.0,29.1,30.25,SSW,193,1.0,7.0,76,0.00,,,0.00,meteohub,2013-02-08 07:00:00,
2013-02-08 02:05:00,36.1,29.3,30.25,SSW,198,0.0,7.0,76,0.00,,,0.00,meteohub,2013-02-08 07:05:00,
2013-02-08 02:10:00,36.1,28.9,30.25,SSW,195,1.0,7.0,75,0.00,,,0.00,meteohub,2013-02-08 07:10:00,
2013-02-08 02:16:00,36.1,28.9,30.25,SSW,197,0.0,3.0,75,0.00,,,0.00,meteohub,2013-02-08 07:16:00,
2013-02-08 02:21:00,36.1,28.9,30.24,SSW,201,0.0,4.0,75,0.00,,,0.00,meteohub,2013-02-08 07:21:00,
2013-02-08 02:26:00,36.3,29.1,30.24,South,191,1.0,6.0,75,0.00,,,0.00,meteohub,2013-02-08 07:26:00,
2013-02-08 02:31:00,36.1,28.9,30.24,South,184,2.0,6.0,75,0.00,,,0.00,meteohub,2013-02-08 07:31:00,
2013-02-08 02:36:00,36.1,29.3,30.24,SSW,203,1.0,5.0,76,0.00,,,0.00,meteohub,2013-02-08 07:36:00,
2013-02-08 02:42:00,36.1,29.3,30.23,SSW,211,1.0,5.0,76,0.00,,,0.00,meteohub,2013-02-08 07:42:00,
2013-02-08 02:47:00,36.1,29.3,30.23,South,191,0.0,5.0,76,0.00,,,0.00,meteohub,2013-02-08 07:47:00,
2013-02-08 02:52:00,36.1,29.3,30.23,SSW,194,2.0,5.0,76,0.00,,,0.00,meteohub,2013-02-08 07:52:00,
2013-02-08 02:57:00,36.3,29.5,30.23,SW,219,2.0,6.0,76,0.00,,,0.00,meteohub,2013-02-08 07:57:00,
2013-02-08 03:02:00,36.3,29.5,30.22,SW,215,1.0,6.0,76,0.00,,,0.00,meteohub,2013-02-08 08:02:00,
2013-02-08 03:07:00,36.3,29.5,30.22,South,183,1.0,6.0,76,0.00,,,0.00,meteohub,2013-02-08 08:07:00,
2013-02-08 03:12:00,36.3,29.5,30.22,South,177,2.0,6.0,76,0.00,,,0.00,meteohub,2013-02-08 08:12:00,
2013-02-08 03:17:00,36.3,29.5,30.22,South,191,1.0,5.0,76,0.00,,,0.00,meteohub,2013-02-08 08:17:00,
2013-02-08 03:22:00,36.1,29.3,30.21,SSE,166,2.0,5.0,76,0.00,,,0.00,meteohub,2013-02-08 08:22:00,
2013-02-08 03:27:00,36.1,29.3,30.21,SSW,197,2.0,6.0,76,0.00,,,0.00,meteohub,2013-02-08 08:27:00,
2013-02-08 03:32:00,36.1,29.7,30.21,SSW,200,1.0,6.0,77,0.00,,,0.00,meteohub,2013-02-08 08:32:00,
2013-02-08 03:37:00,36.1,29.7,30.20,SSW,198,0.0,4.0,77,0.00,,,0.00,meteohub,2013-02-08 08:37:00,
2013-02-08 03:42:00,36.1,29.7,30.19,SSW,193,2.0,4.0,77,0.00,,,0.00,meteohub,2013-02-08 08:42:00,
2013-02-08 03:47:00,36.1,29.7,30.19,South,191,2.0,5.0,77,0.00,,,0.00,meteohub,2013-02-08 08:47:00,
2013-02-08 03:52:00,36.1,29.7,30.19,SSW,194,3.0,5.0,77,0.00,,,0.00,meteohub,2013-02-08 08:52:00,
2013-02-08 03:57:00,36.1,29.7,30.19,SSW,212,2.0,6.0,77,0.00,,,0.00,meteohub,2013-02-08 08:57:00,
2013-02-08 04:02:00,36.1,29.7,30.19,SSW,198,1.0,6.0,77,0.00,,,0.00,meteohub,2013-02-08 09:02:00,
2013-02-08 04:07:00,36.0,29.5,30.18,SW,217,1.0,6.0,77,0.00,,,0.00,meteohub,2013-02-08 09:07:00,
2013-02-08 04:12:00,36.0,29.5,30.18,SSW,197,2.0,6.0,77,0.00,,,0.00,meteohub,2013-02-08 09:12:00,
2013-02-08 04:17:00,35.8,29.3,30.18,SSW,204,2.0,5.0,77,0.00,,,0.00,meteohub,2013-02-08 09:17:00,
2013-02-08 04:22:00,35.8,28.9,30.18,SSW,194,1.0,5.0,76,0.00,,,0.00,meteohub,2013-02-08 09:22:00,
2013-02-08 04:27:00,35.4,28.6,30.17,SSW,197,0.0,5.0,76,0.00,,,0.00,meteohub,2013-02-08 09:27:00,
2013-02-08 04:32:00,35.4,28.6,30.17,SSW,203,2.0,5.0,76,0.00,,,0.00,meteohub,2013-02-08 09:32:00,
2013-02-08 04:37:00,35.2,28.4,30.17,SW,225,6.0,6.0,76,0.00,,,0.00,meteohub,2013-02-08 09:37:00,
2013-02-08 04:42:00,35.2,28.4,30.17,SSW,212,1.0,4.0,76,0.00,,,0.00,meteohub,2013-02-08 09:42:00,
2013-02-08 04:47:00,35.1,28.2,30.17,South,186,1.0,8.0,76,0.00,,,0.00,meteohub,2013-02-08 09:47:00,
2013-02-08 04:52:00,35.1,28.2,30.17,SSW,207,0.0,8.0,76,0.00,,,0.00,meteohub,2013-02-08 09:52:00,
2013-02-08 04:57:00,34.9,28.0,30.17,SW,225,2.0,6.0,76,0.00,,,0.00,meteohub,2013-02-08 09:57:00,
2013-02-08 05:02:00,34.9,28.0,30.17,WSW,238,2.0,6.0,76,0.00,,,0.00,meteohub,2013-02-08 10:02:00,
2013-02-08 05:07:00,34.9,28.0,30.17,SW,222,2.0,5.0,76,0.00,,,0.00,meteohub,2013-02-08 10:07:00,
2013-02-08 05:12:00,34.9,28.0,30.16,SSW,207,2.0,5.0,76,0.00,,,0.00,meteohub,2013-02-08 10:12:00,
2013-02-08 05:17:00,34.7,27.9,30.16,SW,225,4.0,5.0,76,0.00,,,0.00,meteohub,2013-02-08 10:17:00,
2013-02-08 05:22:00,34.7,27.9,30.16,SSW,211,1.0,5.0,76,0.00,,,0.00,meteohub,2013-02-08 10:22:00,
2013-02-08 05:27:00,34.9,28.0,30.16,SW,216,1.0,6.0,76,0.00,,,0.00,meteohub,2013-02-08 10:27:00,
2013-02-08 05:32:00,34.9,28.0,30.15,SW,217,2.0,6.0,76,0.00,,,0.00,meteohub,2013-02-08 10:32:00,
2013-02-08 05:38:00,34.9,28.0,30.15,SSW,212,2.0,6.0,76,0.00,,,0.00,meteohub,2013-02-08 10:38:00,
2013-02-08 05:43:00,35.1,28.2,30.15,SSW,208,1.0,6.0,76,0.00,,,0.00,meteohub,2013-02-08 10:43:00,
2013-02-08 05:48:00,35.1,28.2,30.14,SW,219,2.0,8.0,76,0.00,,,0.00,meteohub,2013-02-08 10:48:00,
2013-02-08 05:53:00,35.1,28.2,30.14,SW,215,2.0,8.0,76,0.00,,,0.00,meteohub,2013-02-08 10:53:00,
2013-02-08 05:58:00,35.2,28.4,30.14,SSW,211,5.0,8.0,76,0.00,,,0.00,meteohub,2013-02-08 10:58:00,
2013-02-08 06:03:00,35.2,28.4,30.14,SW,217,1.0,8.0,76,0.00,,,0.00,meteohub,2013-02-08 11:03:00,
2013-02-08 06:09:00,35.2,28.4,30.13,SW,226,2.0,8.0,76,0.00,,,0.00,meteohub,2013-02-08 11:09:00,
2013-02-08 06:14:00,35.2,29.1,30.13,SW,219,4.0,8.0,78,0.00,,,0.00,meteohub,2013-02-08 11:14:00,
2013-02-08 06:19:00,35.1,29.5,30.12,SW,229,4.0,6.0,80,0.00,,,0.00,meteohub,2013-02-08 11:19:00,
2013-02-08 06:24:00,34.9,29.7,30.12,SW,217,3.0,6.0,81,0.00,,,0.00,meteohub,2013-02-08 11:24:00,
2013-02-08 06:30:00,34.5,29.8,30.12,SSW,211,0.0,6.0,83,0.00,,,0.00,meteohub,2013-02-08 11:30:00,
2013-02-08 06:35:00,34.5,30.2,30.12,WSW,240,2.0,6.0,84,0.00,,,0.00,meteohub,2013-02-08 11:35:00,
2013-02-08 06:40:00,34.3,30.4,30.12,SW,225,3.0,8.0,85,0.00,,,0.00,meteohub,2013-02-08 11:40:00,
2013-02-08 06:45:00,34.3,30.6,30.12,South,191,0.0,8.0,86,0.00,,,0.00,meteohub,2013-02-08 11:45:00,
2013-02-08 06:51:00,34.3,30.9,30.11,SW,228,2.0,7.0,87,0.00,,,0.00,meteohub,2013-02-08 11:51:00,
2013-02-08 06:56:00,34.2,30.9,30.11,SW,215,1.0,7.0,88,0.00,,,0.00,meteohub,2013-02-08 11:56:00,
2013-02-08 07:01:00,34.2,31.3,30.11,SSW,211,1.0,6.0,89,0.00,,,0.00,meteohub,2013-02-08 12:01:00,
2013-02-08 07:07:00,34.2,31.3,30.11,SW,217,1.0,6.0,89,0.00,,,0.00,meteohub,2013-02-08 12:07:00,
2013-02-08 07:12:00,34.0,31.3,30.11,SSW,211,1.0,5.0,90,0.00,,,0.00,meteohub,2013-02-08 12:12:00,
2013-02-08 07:17:00,34.0,31.3,30.10,SW,218,3.0,5.0,90,0.00,,,0.00,meteohub,2013-02-08 12:17:00,
2013-02-08 07:22:00,34.0,31.3,30.10,SSW,207,0.0,4.0,90,0.00,,,0.00,meteohub,2013-02-08 12:22:00,
2013-02-08 07:27:00,34.2,31.8,30.10,SSW,198,1.0,4.0,91,0.00,,,0.00,meteohub,2013-02-08 12:27:00,
2013-02-08 07:32:00,34.2,31.8,30.10,SSW,207,2.0,5.0,91,0.00,,,0.00,meteohub,2013-02-08 12:32:00,
2013-02-08 07:37:00,34.2,31.8,30.10,SW,214,1.0,5.0,91,0.00,,,0.00,meteohub,2013-02-08 12:37:00,
2013-02-08 07:42:00,34.2,31.8,30.10,SSW,211,0.0,5.0,91,0.00,,,0.00,meteohub,2013-02-08 12:42:00,
2013-02-08 07:47:00,34.2,31.8,30.09,SW,225,1.0,5.0,91,0.00,,,0.00,meteohub,2013-02-08 12:47:00,
2013-02-08 07:52:00,34.3,32.0,30.09,SSW,208,1.0,4.0,91,0.00,,,0.00,meteohub,2013-02-08 12:52:00,
2013-02-08 07:57:00,34.3,32.2,30.09,SSW,205,1.0,4.0,92,0.00,,,0.00,meteohub,2013-02-08 12:57:00,
2013-02-08 08:02:00,34.3,32.2,30.09,SW,217,2.0,6.0,92,0.00,,,0.00,meteohub,2013-02-08 13:02:00,
2013-02-08 08:08:00,34.5,32.4,30.08,SSW,211,2.0,6.0,92,0.00,,,0.00,meteohub,2013-02-08 13:08:00,
2013-02-08 08:13:00,34.5,32.4,30.09,South,190,1.0,5.0,92,0.00,,,0.00,meteohub,2013-02-08 13:13:00,
2013-02-08 08:18:00,34.7,32.5,30.08,South,183,0.0,5.0,92,0.00,,,0.00,meteohub,2013-02-08 13:18:00,
2013-02-08 08:24:00,34.9,32.7,30.08,SSW,195,1.0,5.0,92,0.00,,,0.00,meteohub,2013-02-08 13:24:00,
2013-02-08 08:29:00,34.9,32.7,30.07,SSW,200,2.0,5.0,92,0.00,,,0.00,meteohub,2013-02-08 13:29:00,
2013-02-08 08:34:00,34.9,32.7,30.07,SSW,204,2.0,5.0,92,0.00,,,0.00,meteohub,2013-02-08 13:34:00,
2013-02-08 08:39:00,35.1,32.9,30.06,SSW,197,1.0,5.0,92,0.01,,,0.01,meteohub,2013-02-08 13:39:00,
2013-02-08 08:45:00,35.1,32.9,30.06,South,191,3.0,5.0,92,0.01,,,0.01,meteohub,2013-02-08 13:45:00,
2013-02-08 08:50:00,35.2,33.1,30.06,SSW,193,1.0,7.0,92,0.01,,,0.01,meteohub,2013-02-08 13:50:00,
2013-02-08 08:55:00,35.2,33.1,30.06,SSW,194,2.0,7.0,92,0.01,,,0.01,meteohub,2013-02-08 13:55:00,
2013-02-08 09:00:00,35.4,33.3,30.05,South,184,2.0,7.0,92,0.02,,,0.02,meteohub,2013-02-08 14:00:00,
2013-02-08 09:05:00,35.4,33.3,30.05,SSW,195,1.0,7.0,92,0.02,,,0.02,meteohub,2013-02-08 14:05:00,
2013-02-08 09:11:00,35.6,33.4,30.04,SSW,198,2.0,5.0,92,0.03,,,0.02,meteohub,2013-02-08 14:11:00,
2013-02-08 09:16:00,35.6,33.4,30.04,SSW,207,0.0,5.0,92,0.03,,,0.03,meteohub,2013-02-08 14:16:00,
2013-02-08 09:21:00,35.8,33.6,30.03,SSW,203,3.0,5.0,92,0.04,,,0.03,meteohub,2013-02-08 14:21:00,
2013-02-08 09:27:00,35.8,33.6,30.03,SSW,211,2.0,5.0,92,0.04,,,0.04,meteohub,2013-02-08 14:27:00,
2013-02-08 09:32:00,35.8,33.6,30.03,SW,229,4.0,5.0,92,0.04,,,0.04,meteohub,2013-02-08 14:32:00,
2013-02-08 09:37:00,35.8,33.6,30.02,SSW,208,3.0,5.0,92,0.04,,,0.05,meteohub,2013-02-08 14:37:00,
2013-02-08 09:42:00,36.0,33.8,30.02,SSW,207,2.0,6.0,92,0.04,,,0.05,meteohub,2013-02-08 14:42:00,
2013-02-08 09:47:00,36.0,33.8,30.01,South,187,2.0,6.0,92,0.04,,,0.06,meteohub,2013-02-08 14:47:00,
2013-02-08 09:52:00,36.0,33.8,30.01,SW,218,3.0,7.0,92,0.05,,,0.06,meteohub,2013-02-08 14:52:00,
2013-02-08 09:57:00,36.0,33.8,30.01,South,176,1.0,7.0,92,0.05,,,0.07,meteohub,2013-02-08 14:57:00,
2013-02-08 10:02:00,36.0,33.8,30.00,SSW,198,2.0,8.0,92,0.05,,,0.07,meteohub,2013-02-08 15:02:00,
2013-02-08 10:07:00,36.0,33.8,29.99,SSW,204,1.0,8.0,92,0.05,,,0.08,meteohub,2013-02-08 15:07:00,
2013-02-08 10:12:00,36.1,34.0,29.99,SSW,211,3.0,7.0,92,0.05,,,0.08,meteohub,2013-02-08 15:12:00,
2013-02-08 10:17:00,36.1,34.0,29.99,SSW,193,2.0,7.0,92,0.05,,,0.08,meteohub,2013-02-08 15:17:00,
2013-02-08 10:22:00,36.1,34.0,29.99,South,190,2.0,8.0,92,0.04,,,0.08,meteohub,2013-02-08 15:22:00,
2013-02-08 10:27:00,36.1,34.0,29.98,SSW,193,1.0,8.0,92,0.05,,,0.09,meteohub,2013-02-08 15:27:00,
2013-02-08 10:32:00,36.1,34.0,29.97,SW,222,3.0,8.0,92,0.04,,,0.09,meteohub,2013-02-08 15:32:00,
2013-02-08 10:37:00,36.3,34.2,29.97,SW,215,3.0,7.0,92,0.05,,,0.10,meteohub,2013-02-08 15:37:00,
2013-02-08 10:42:00,36.3,34.2,29.96,SW,225,7.0,7.0,92,0.04,,,0.10,meteohub,2013-02-08 15:42:00,
2013-02-08 10:47:00,36.3,34.2,29.96,SSW,196,3.0,13.0,92,0.04,,,0.10,meteohub,2013-02-08 15:47:00,
2013-02-08 10:52:00,36.3,34.2,29.96,SW,232,5.0,13.0,92,0.04,,,0.11,meteohub,2013-02-08 15:52:00,
2013-02-08 10:57:00,36.3,34.2,29.95,South,176,3.0,8.0,92,0.05,,,0.12,meteohub,2013-02-08 15:57:00,
2013-02-08 11:02:00,36.3,34.2,29.95,SW,221,6.0,8.0,92,0.05,,,0.12,meteohub,2013-02-08 16:02:00,
2013-02-08 11:07:00,36.3,34.2,29.94,SW,231,6.0,8.0,92,0.05,,,0.12,meteohub,2013-02-08 16:07:00,
2013-02-08 11:12:00,36.3,34.2,29.94,SSW,194,2.0,8.0,92,0.05,,,0.13,meteohub,2013-02-08 16:12:00,
2013-02-08 11:17:00,36.3,34.2,29.93,SW,224,3.0,9.0,92,0.06,,,0.14,meteohub,2013-02-08 16:17:00,
2013-02-08 11:22:00,36.3,34.2,29.92,SW,222,4.0,9.0,92,0.05,,,0.14,meteohub,2013-02-08 16:22:00,
2013-02-08 11:27:00,36.3,34.2,29.92,SW,219,3.0,9.0,92,0.05,,,0.14,meteohub,2013-02-08 16:27:00,
2013-02-08 11:32:00,36.3,34.2,29.92,WSW,248,2.0,9.0,92,0.05,,,0.15,meteohub,2013-02-08 16:32:00,
2013-02-08 11:37:00,36.3,34.2,29.91,South,188,2.0,8.0,92,0.05,,,0.15,meteohub,2013-02-08 16:37:00,
2013-02-08 11:42:00,36.3,34.2,29.91,South,191,2.0,8.0,92,0.06,,,0.16,meteohub,2013-02-08 16:42:00,
2013-02-08 11:47:00,36.3,34.2,29.90,SW,224,4.0,9.0,92,0.06,,,0.16,meteohub,2013-02-08 16:47:00,
2013-02-08 11:52:00,36.3,34.2,29.90,SW,232,6.0,9.0,92,0.06,,,0.17,meteohub,2013-02-08 16:52:00,
2013-02-08 11:57:00,36.3,34.2,29.89,SSW,193,5.0,10.0,92,0.06,,,0.18,meteohub,2013-02-08 16:57:00,
2013-02-08 12:02:00,36.3,34.2,29.89,SW,224,2.0,10.0,92,0.07,,,0.19,meteohub,2013-02-08 17:02:00,
2013-02-08 12:08:00,36.1,33.8,29.88,SW,233,6.0,10.0,91,0.07,,,0.19,meteohub,2013-02-08 17:08:00,
2013-02-08 12:13:00,36.1,34.0,29.87,SSW,200,4.0,11.0,92,0.07,,,0.20,meteohub,2013-02-08 17:13:00,
2013-02-08 12:18:00,36.1,34.0,29.87,South,191,2.0,11.0,92,0.07,,,0.20,meteohub,2013-02-08 17:18:00,
2013-02-08 12:24:00,36.1,34.0,29.86,SW,219,7.0,11.0,92,0.07,,,0.21,meteohub,2013-02-08 17:24:00,
2013-02-08 12:29:00,36.1,34.0,29.85,SSE,167,2.0,8.0,92,0.08,,,0.21,meteohub,2013-02-08 17:29:00,
2013-02-08 12:34:00,36.0,33.8,29.84,South,187,3.0,8.0,92,0.08,,,0.23,meteohub,2013-02-08 17:34:00,
2013-02-08 12:54:00,36.0,33.8,29.81,WSW,239,3.0,10.0,92,0.08,,,0.26,meteohub,2013-02-08 17:54:00,
2013-02-08 12:59:00,36.0,33.8,29.81,SW,224,4.0,9.0,92,0.09,,,0.27,meteohub,2013-02-08 17:59:00,
2013-02-08 13:05:00,36.0,33.8,29.80,SSW,201,1.0,11.0,92,0.09,,,0.27,meteohub,2013-02-08 18:05:00,
2013-02-08 13:10:00,36.0,33.8,29.79,SW,224,3.0,11.0,92,0.09,,,0.27,meteohub,2013-02-08 18:10:00,
2013-02-08 13:15:00,36.0,33.8,29.79,SW,235,7.0,10.0,92,0.08,,,0.29,meteohub,2013-02-08 18:15:00,
2013-02-08 13:20:00,36.0,33.6,29.78,SW,224,3.0,11.0,91,0.08,,,0.29,meteohub,2013-02-08 18:20:00,
2013-02-08 13:26:00,36.0,33.6,29.78,WSW,249,3.0,12.0,91,0.08,,,0.29,meteohub,2013-02-08 18:26:00,
2013-02-08 13:31:00,35.8,33.4,29.77,SW,232,5.0,12.0,91,0.08,,,0.30,meteohub,2013-02-08 18:31:00,
2013-02-08 13:36:00,35.8,33.4,29.76,WSW,242,5.0,16.0,91,0.07,,,0.31,meteohub,2013-02-08 18:36:00,
2013-02-08 13:41:00,35.6,33.3,29.75,SW,226,7.0,16.0,91,0.07,,,0.32,meteohub,2013-02-08 18:41:00,
2013-02-08 13:47:00,35.4,33.1,29.75,WSW,253,7.0,16.0,91,0.07,,,0.32,meteohub,2013-02-08 18:47:00,
2013-02-08 13:52:00,35.2,32.9,29.74,WSW,252,6.0,16.0,91,0.06,,,0.33,meteohub,2013-02-08 18:52:00,
2013-02-08 13:57:00,35.2,32.9,29.74,SW,226,10.0,13.0,91,0.06,,,0.33,meteohub,2013-02-08 18:57:00,
2013-02-08 14:02:00,35.2,32.9,29.74,SW,228,7.0,13.0,91,0.06,,,0.34,meteohub,2013-02-08 19:02:00,
2013-02-08 14:07:00,35.1,32.7,29.73,SW,229,9.0,13.0,91,0.06,,,0.34,meteohub,2013-02-08 19:07:00,
2013-02-08 14:12:00,35.1,32.7,29.73,SW,231,6.0,13.0,91,0.06,,,0.35,meteohub,2013-02-08 19:12:00,
2013-02-08 14:17:00,35.1,32.7,29.73,SW,217,7.0,15.0,91,0.06,,,0.35,meteohub,2013-02-08 19:17:00,
2013-02-08 14:22:00,35.1,32.7,29.72,WSW,257,3.0,15.0,91,0.06,,,0.36,meteohub,2013-02-08 19:22:00,
2013-02-08 14:27:00,35.1,32.7,29.72,SW,236,6.0,15.0,91,0.06,,,0.36,meteohub,2013-02-08 19:27:00,
2013-02-08 14:33:00,35.1,32.7,29.71,WSW,242,4.0,12.0,91,0.05,,,0.36,meteohub,2013-02-08 19:33:00,
2013-02-08 14:38:00,35.1,32.4,29.71,SSW,203,3.0,12.0,90,0.05,,,0.36,meteohub,2013-02-08 19:38:00,
2013-02-08 14:43:00,34.9,32.5,29.71,WSW,239,10.0,14.0,91,0.05,,,0.37,meteohub,2013-02-08 19:43:00,
2013-02-08 14:48:00,34.9,32.5,29.70,SW,236,6.0,14.0,91,0.05,,,0.37,meteohub,2013-02-08 19:48:00,
2013-02-08 14:54:00,34.9,32.5,29.70,SW,217,4.0,15.0,91,0.05,,,0.38,meteohub,2013-02-08 19:54:00,
2013-02-08 14:59:00,34.9,32.5,29.70,WSW,245,4.0,15.0,91,0.04,,,0.38,meteohub,2013-02-08 19:59:00,
2013-02-08 15:04:00,34.9,32.5,29.70,SW,217,2.0,11.0,91,0.04,,,0.38,meteohub,2013-02-08 20:04:00,
2013-02-08 15:09:00,34.7,32.0,29.69,WSW,252,5.0,11.0,90,0.04,,,0.38,meteohub,2013-02-08 20:09:00,
2013-02-08 15:15:00,34.9,32.2,29.69,WSW,246,5.0,12.0,90,0.03,,,0.38,meteohub,2013-02-08 20:15:00,
2013-02-08 15:20:00,34.7,32.0,29.68,WSW,240,7.0,14.0,90,0.04,,,0.39,meteohub,2013-02-08 20:20:00,
2013-02-08 15:25:00,34.7,32.0,29.68,SW,228,8.0,15.0,90,0.03,,,0.39,meteohub,2013-02-08 20:25:00,
2013-02-08 15:30:00,34.5,31.8,29.68,SSW,212,2.0,15.0,90,0.03,,,0.39,meteohub,2013-02-08 20:30:00,
2013-02-08 15:36:00,34.5,31.8,29.68,SSW,193,5.0,15.0,90,0.02,,,0.39,meteohub,2013-02-08 20:36:00,
2013-02-08 15:41:00,34.5,32.2,29.67,WSW,245,5.0,15.0,91,0.02,,,0.39,meteohub,2013-02-08 20:41:00,
2013-02-08 15:46:00,34.5,32.2,29.68,SW,223,7.0,17.0,91,0.02,,,0.39,meteohub,2013-02-08 20:46:00,
2013-02-08 15:51:00,34.5,31.8,29.67,SW,221,6.0,17.0,90,0.02,,,0.39,meteohub,2013-02-08 20:51:00,
2013-02-08 15:57:00,34.5,31.8,29.68,SW,217,3.0,15.0,90,0.01,,,0.39,meteohub,2013-02-08 20:57:00,
2013-02-08 16:02:00,34.5,32.2,29.68,SW,226,6.0,15.0,91,0.01,,,0.39,meteohub,2013-02-08 21:02:00,
2013-02-08 16:07:00,34.5,32.2,29.68,WSW,252,5.0,15.0,91,0.01,,,0.39,meteohub,2013-02-08 21:07:00,
2013-02-08 16:12:00,34.5,31.8,29.68,SSW,210,5.0,15.0,90,0.01,,,0.39,meteohub,2013-02-08 21:12:00,
2013-02-08 16:17:00,34.5,31.8,29.68,WSW,245,5.0,13.0,90,0.00,,,0.39,meteohub,2013-02-08 21:17:00,
2013-02-08 16:22:00,34.3,32.0,29.67,WSW,243,8.0,13.0,91,0.00,,,0.39,meteohub,2013-02-08 21:22:00,
2013-02-08 16:27:00,34.2,31.8,29.67,SW,235,6.0,16.0,91,0.00,,,0.39,meteohub,2013-02-08 21:27:00,
2013-02-08 16:32:00,34.2,31.8,29.67,WSW,249,4.0,16.0,91,0.00,,,0.39,meteohub,2013-02-08 21:32:00,
2013-02-08 16:37:00,34.0,31.8,29.67,SW,222,2.0,16.0,92,0.00,,,0.39,meteohub,2013-02-08 21:37:00,
2013-02-08 16:42:00,34.0,31.8,29.67,WSW,240,5.0,16.0,92,0.00,,,0.39,meteohub,2013-02-08 21:42:00,
2013-02-08 16:47:00,34.0,31.8,29.66,WNW,289,8.0,14.0,92,0.00,,,0.39,meteohub,2013-02-08 21:47:00,
2013-02-08 16:52:00,34.0,31.8,29.65,SW,222,13.0,14.0,92,0.00,,,0.39,meteohub,2013-02-08 21:52:00,
2013-02-08 16:57:00,34.0,31.8,29.65,SSW,205,4.0,14.0,92,0.00,,,0.39,meteohub,2013-02-08 21:57:00,
2013-02-08 17:02:00,33.8,32.0,29.65,WSW,238,8.0,14.0,93,0.00,,,0.39,meteohub,2013-02-08 22:02:00,
2013-02-08 17:07:00,33.6,31.8,29.65,SW,232,5.0,14.0,93,0.00,,,0.39,meteohub,2013-02-08 22:07:00,
2013-02-08 17:12:00,33.6,31.8,29.64,SW,222,3.0,14.0,93,0.00,,,0.39,meteohub,2013-02-08 22:12:00,
2013-02-08 17:17:00,33.6,31.8,29.64,SW,235,9.0,14.0,93,0.00,,,0.39,meteohub,2013-02-08 22:17:00,
2013-02-08 17:22:00,33.4,31.6,29.64,WSW,245,5.0,14.0,93,0.00,,,0.39,meteohub,2013-02-08 22:22:00,
2013-02-08 17:27:00,33.4,31.6,29.63,WSW,248,5.0,14.0,93,0.00,,,0.39,meteohub,2013-02-08 22:27:00,
2013-02-08 17:32:00,33.4,31.6,29.63,SSW,197,4.0,14.0,93,0.00,,,0.39,meteohub,2013-02-08 22:32:00,
2013-02-08 17:37:00,33.4,31.8,29.62,WSW,255,6.0,13.0,94,0.00,,,0.39,meteohub,2013-02-08 22:37:00,
2013-02-08 17:42:00,33.4,31.8,29.62,SSW,193,2.0,13.0,94,0.00,,,0.39,meteohub,2013-02-08 22:42:00,
2013-02-08 17:47:00,33.4,31.8,29.62,WSW,255,5.0,12.0,94,0.00,,,0.39,meteohub,2013-02-08 22:47:00,
2013-02-08 17:52:00,33.4,31.8,29.62,SW,232,3.0,12.0,94,0.00,,,0.39,meteohub,2013-02-08 22:52:00,
2013-02-08 17:57:00,33.4,31.8,29.62,SW,225,7.0,14.0,94,0.00,,,0.39,meteohub,2013-02-08 22:57:00,
2013-02-08 18:02:00,33.4,31.8,29.62,SW,215,5.0,14.0,94,0.00,,,0.39,meteohub,2013-02-08 23:02:00,
2013-02-08 18:07:00,33.4,31.8,29.62,SSW,200,3.0,14.0,94,0.00,,,0.39,meteohub,2013-02-08 23:07:00,
2013-02-08 18:12:00,33.3,31.5,29.62,WSW,238,2.0,14.0,93,0.00,,,0.39,meteohub,2013-02-08 23:12:00,
2013-02-08 18:17:00,33.3,31.5,29.62,SW,232,8.0,14.0,93,0.00,,,0.39,meteohub,2013-02-08 23:17:00,
2013-02-08 18:23:00,33.1,31.3,29.61,WSW,243,3.0,14.0,93,0.00,,,0.39,meteohub,2013-02-08 23:23:00,
2013-02-08 18:28:00,33.1,31.3,29.61,WSW,243,6.0,13.0,93,0.00,,,0.39,meteohub,2013-02-08 23:28:00,
2013-02-08 18:33:00,32.9,31.1,29.61,SW,232,7.0,13.0,93,0.00,,,0.39,meteohub,2013-02-08 23:33:00,
2013-02-08 18:38:00,32.9,31.1,29.61,WSW,242,4.0,13.0,93,0.00,,,0.39,meteohub,2013-02-08 23:38:00,
2013-02-08 18:44:00,32.7,30.9,29.60,SW,222,5.0,13.0,93,0.00,,,0.39,meteohub,2013-02-08 23:44:00,
2013-02-08 18:49:00,32.7,30.9,29.60,SW,224,4.0,13.0,93,0.00,,,0.39,meteohub,2013-02-08 23:49:00,
2013-02-08 18:54:00,32.5,30.7,29.60,SW,222,6.0,12.0,93,0.00,,,0.39,meteohub,2013-02-08 23:54:00,
2013-02-08 18:59:00,32.4,30.6,29.60,WSW,245,6.0,12.0,93,0.00,,,0.39,meteohub,2013-02-08 23:59:00,
2013-02-08 19:05:00,32.4,30.6,29.60,SSW,211,4.0,13.0,93,0.00,,,0.39,meteohub,2013-02-09 00:05:00,
2013-02-08 19:10:00,32.2,30.4,29.60,SW,222,2.0,13.0,93,0.00,,,0.39,meteohub,2013-02-09 00:10:00,
2013-02-08 19:15:00,32.2,30.4,29.60,SW,235,4.0,13.0,93,0.00,,,0.39,meteohub,2013-02-09 00:15:00,
2013-02-08 19:20:00,32.0,30.2,29.60,SW,225,4.0,13.0,93,0.00,,,0.39,meteohub,2013-02-09 00:20:00,
2013-02-08 19:26:00,31.8,30.0,29.60,SW,224,3.0,15.0,93,0.00,,,0.39,meteohub,2013-02-09 00:26:00,
2013-02-08 19:31:00,31.8,30.4,29.60,SSW,192,2.0,15.0,94,0.00,,,0.39,meteohub,2013-02-09 00:31:00,
2013-02-08 19:36:00,31.8,30.4,29.59,SW,236,4.0,17.0,94,0.00,,,0.39,meteohub,2013-02-09 00:36:00,
2013-02-08 19:41:00,31.6,30.2,29.59,WSW,240,8.0,17.0,94,0.00,,,0.39,meteohub,2013-02-09 00:41:00,
2013-02-08 19:47:00,31.6,30.2,29.59,SSW,207,2.0,17.0,94,0.00,,,0.39,meteohub,2013-02-09 00:47:00,
2013-02-08 19:52:00,31.6,30.2,29.59,WSW,243,7.0,17.0,94,0.00,,,0.39,meteohub,2013-02-09 00:52:00,
2013-02-08 19:57:00,31.5,30.0,29.59,SW,226,6.0,12.0,94,0.00,,,0.39,meteohub,2013-02-09 00:57:00,
2013-02-08 20:02:00,31.5,30.0,29.60,WSW,242,3.0,12.0,94,0.00,,,0.39,meteohub,2013-02-09 01:02:00,
2013-02-08 20:07:00,31.5,30.0,29.60,SW,221,3.0,12.0,94,0.00,,,0.39,meteohub,2013-02-09 01:07:00,
2013-02-08 20:13:00,31.5,30.0,29.59,SW,224,3.0,7.0,94,0.00,,,0.39,meteohub,2013-02-09 01:13:00,
2013-02-08 20:18:00,31.3,29.5,29.58,SW,219,5.0,11.0,93,0.00,,,0.39,meteohub,2013-02-09 01:18:00,
2013-02-08 20:23:00,31.1,29.7,29.58,SW,221,1.0,12.0,94,0.00,,,0.39,meteohub,2013-02-09 01:23:00,
2013-02-08 20:28:00,31.1,29.7,29.58,SW,235,7.0,12.0,94,0.00,,,0.39,meteohub,2013-02-09 01:28:00,
2013-02-08 20:34:00,31.1,29.7,29.58,WSW,240,3.0,11.0,94,0.00,,,0.39,meteohub,2013-02-09 01:34:00,
2013-02-08 20:39:00,31.1,29.3,29.59,SW,215,4.0,11.0,93,0.00,,,0.39,meteohub,2013-02-09 01:39:00,
2013-02-08 20:44:00,30.9,29.1,29.58,SW,233,5.0,11.0,93,0.00,,,0.39,meteohub,2013-02-09 01:44:00,
2013-02-08 20:49:00,30.9,29.1,29.59,SSW,211,4.0,11.0,93,0.00,,,0.39,meteohub,2013-02-09 01:49:00,
2013-02-08 20:54:00,30.9,29.1,29.59,WSW,240,3.0,13.0,93,0.00,,,0.39,meteohub,2013-02-09 01:54:00,
2013-02-08 21:00:00,30.9,29.1,29.59,SW,228,3.0,13.0,93,0.00,,,0.39,meteohub,2013-02-09 02:00:00,
2013-02-08 21:05:00,30.9,29.1,29.58,WSW,245,3.0,13.0,93,0.00,,,0.39,meteohub,2013-02-09 02:05:00,
2013-02-08 21:10:00,30.9,29.1,29.59,NW,323,2.0,13.0,93,0.00,,,0.39,meteohub,2013-02-09 02:10:00,
2013-02-08 21:15:00,30.7,28.9,29.59,SW,235,5.0,11.0,93,0.00,,,0.39,meteohub,2013-02-09 02:15:00,
2013-02-08 21:21:00,30.7,29.3,29.59,SW,219,1.0,10.0,94,0.00,,,0.39,meteohub,2013-02-09 02:21:00,
2013-02-08 21:26:00,30.7,29.3,29.59,SW,225,2.0,10.0,94,0.00,,,0.39,meteohub,2013-02-09 02:26:00,
2013-02-08 21:31:00,30.7,29.3,29.60,SW,226,3.0,10.0,94,0.00,,,0.39,meteohub,2013-02-09 02:31:00,
2013-02-08 21:36:00,30.7,29.3,29.60,SW,221,1.0,8.0,94,0.00,,,0.39,meteohub,2013-02-09 02:36:00,
2013-02-08 21:42:00,30.7,29.3,29.61,South,177,3.0,8.0,94,0.00,,,0.39,meteohub,2013-02-09 02:42:00,
2013-02-08 21:47:00,30.7,29.3,29.62,SW,235,2.0,12.0,94,0.00,,,0.39,meteohub,2013-02-09 02:47:00,
2013-02-08 21:52:00,30.7,29.3,29.62,SW,222,2.0,12.0,94,0.00,,,0.39,meteohub,2013-02-09 02:52:00,
2013-02-08 21:57:00,30.7,29.3,29.64,SSW,193,1.0,14.0,94,0.00,,,0.39,meteohub,2013-02-09 02:57:00,
2013-02-08 22:02:00,30.7,29.3,29.64,SW,232,1.0,14.0,94,0.00,,,0.39,meteohub,2013-02-09 03:02:00,
2013-02-08 22:07:00,30.7,29.3,29.64,SW,232,1.0,14.0,94,0.00,,,0.39,meteohub,2013-02-09 03:07:00,
2013-02-08 22:12:00,30.9,29.5,29.65,SW,215,1.0,14.0,94,0.00,,,0.39,meteohub,2013-02-09 03:12:00,
2013-02-08 22:17:00,30.9,29.5,29.65,SSW,212,1.0,7.0,94,0.00,,,0.39,meteohub,2013-02-09 03:17:00,
2013-02-08 22:23:00,30.9,29.5,29.65,WSW,243,2.0,7.0,94,0.00,,,0.39,meteohub,2013-02-09 03:23:00,
2013-02-08 22:28:00,30.9,29.5,29.66,SW,225,1.0,7.0,94,0.00,,,0.39,meteohub,2013-02-09 03:28:00,
2013-02-08 22:33:00,30.7,29.3,29.66,WSW,246,2.0,6.0,94,0.00,,,0.39,meteohub,2013-02-09 03:33:00,
2013-02-08 22:38:00,30.6,29.1,29.66,SSW,207,1.0,6.0,94,0.00,,,0.39,meteohub,2013-02-09 03:38:00,
2013-02-08 22:44:00,30.4,28.9,29.66,WSW,248,2.0,6.0,94,0.00,,,0.39,meteohub,2013-02-09 03:44:00,
2013-02-08 22:49:00,30.4,28.9,29.66,SW,224,2.0,6.0,94,0.00,,,0.39,meteohub,2013-02-09 03:49:00,
2013-02-08 22:54:00,30.2,28.8,29.67,WSW,253,6.0,6.0,94,0.00,,,0.39,meteohub,2013-02-09 03:54:00,
2013-02-08 23:00:00,30.0,28.6,29.68,WNW,283,3.0,9.0,94,0.00,,,0.39,meteohub,2013-02-09 04:00:00,
2013-02-08 23:05:00,29.8,28.4,29.68,SW,228,2.0,9.0,94,0.00,,,0.39,meteohub,2013-02-09 04:05:00,
2013-02-08 23:10:00,29.8,28.4,29.68,SW,233,0.0,9.0,94,0.00,,,0.39,meteohub,2013-02-09 04:10:00,
2013-02-08 23:16:00,29.7,28.2,29.69,SW,214,1.0,8.0,94,0.00,,,0.39,meteohub,2013-02-09 04:16:00,
2013-02-08 23:21:00,29.7,28.2,29.69,SW,228,2.0,8.0,94,0.00,,,0.39,meteohub,2013-02-09 04:21:00,
2013-02-08 23:26:00,29.5,28.0,29.69,SW,226,2.0,8.0,94,0.00,,,0.39,meteohub,2013-02-09 04:26:00,
2013-02-08 23:31:00,29.1,27.7,29.69,West,259,1.0,8.0,94,0.00,,,0.39,meteohub,2013-02-09 04:31:00,
2013-02-08 23:37:00,28.9,27.5,29.70,SSW,205,1.0,10.0,94,0.00,,,0.39,meteohub,2013-02-09 04:37:00,
2013-02-08 23:42:00,28.8,27.3,29.70,SW,224,5.0,10.0,94,0.00,,,0.39,meteohub,2013-02-09 04:42:00,
2013-02-08 23:47:00,28.8,27.3,29.71,SW,219,2.0,10.0,94,0.00,,,0.39,meteohub,2013-02-09 04:47:00,
2013-02-08 23:52:00,28.6,27.1,29.71,SW,232,3.0,10.0,94,0.00,,,0.39,meteohub,2013-02-09 04:52:00,
2013-02-08 23:57:00,28.4,27.0,29.71,West,266,2.0,10.0,94,0.00,,,0.39,meteohub,2013-02-09 04:57:00,